createdAt,value
2018-07-23T00:01:22.712Z,19.40
2018-07-23T00:03:50.172Z,19.50
2018-07-23T00:06:17.671Z,19.60
2018-07-23T00:08:45.140Z,19.60
2018-07-23T00:11:12.700Z,19.40
2018-07-23T00:13:40.156Z,19.40
2018-07-23T00:16:07.714Z,19.30
2018-07-23T00:18:35.175Z,19.30
2018-07-23T00:21:02.652Z,19.20
2018-07-23T00:23:31.603Z,19.20
2018-07-23T00:25:59.122Z,19.20
2018-07-23T00:28:26.678Z,19.10
2018-07-23T00:30:54.236Z,19.20
2018-07-23T00:33:21.708Z,19.00
2018-07-23T00:35:49.169Z,18.80
2018-07-23T00:38:16.619Z,19.00
2018-07-23T00:40:44.093Z,19.20
2018-07-23T00:43:11.561Z,19.20
2018-07-23T00:45:39.018Z,19.10
2018-07-23T00:48:07.294Z,18.80
2018-07-23T00:50:34.762Z,18.70
2018-07-23T00:53:02.327Z,18.80
2018-07-23T00:55:31.296Z,19.00
2018-07-23T00:57:58.752Z,19.00
2018-07-23T01:00:26.795Z,19.20
2018-07-23T01:02:54.271Z,19.30
2018-07-23T01:05:21.744Z,19.10
2018-07-23T01:07:49.231Z,19.00
2018-07-23T01:10:16.806Z,18.90
2018-07-23T01:12:44.375Z,18.90
2018-07-23T01:15:13.362Z,18.70
2018-07-23T01:17:40.824Z,18.70
2018-07-23T01:20:08.392Z,18.80
2018-07-23T01:22:35.953Z,19.00
2018-07-23T01:25:03.414Z,18.90
2018-07-23T01:27:30.938Z,19.10
2018-07-23T01:29:58.408Z,19.20
2018-07-23T01:32:25.862Z,19.20
2018-07-23T01:34:53.324Z,19.10
2018-07-23T01:37:20.788Z,19.00
2018-07-23T01:39:48.234Z,18.90
2018-07-23T01:42:15.697Z,18.90
2018-07-23T01:44:43.211Z,18.80
2018-07-23T01:47:10.669Z,18.80
2018-07-23T01:49:38.121Z,18.70
2018-07-23T01:52:05.576Z,18.50
2018-07-23T01:54:33.058Z,18.50
2018-07-23T01:57:00.518Z,18.30
2018-07-23T01:59:27.985Z,18.30
2018-07-23T02:01:55.448Z,18.50
2018-07-23T02:04:23.012Z,18.60
2018-07-23T02:06:50.574Z,18.70
2018-07-23T02:09:18.044Z,18.60
2018-07-23T02:11:45.514Z,18.50
2018-07-23T02:14:13.055Z,18.50
2018-07-23T02:16:40.527Z,18.40
2018-07-23T02:19:09.114Z,18.40
2018-07-23T02:21:36.580Z,18.40
2018-07-23T02:24:04.141Z,18.20
2018-07-23T02:26:31.718Z,18.00
2018-07-23T02:28:59.155Z,17.90
2018-07-23T02:31:26.726Z,18.00
2018-07-23T02:33:54.181Z,18.00
2018-07-23T02:36:21.645Z,18.10
2018-07-23T02:38:49.870Z,18.20
2018-07-23T02:41:18.078Z,18.30
2018-07-23T02:43:45.582Z,18.20
2018-07-23T02:46:13.048Z,18.30
2018-07-23T02:48:40.511Z,18.20
2018-07-23T02:51:08.056Z,18.20
2018-07-23T02:53:35.641Z,18.20
2018-07-23T02:56:04.119Z,18.20
2018-07-23T02:58:31.590Z,18.10
2018-07-23T03:00:59.037Z,18.10
2018-07-23T03:03:26.496Z,18.10
2018-07-23T03:05:53.943Z,17.90
2018-07-23T03:08:21.406Z,17.70
2018-07-23T03:10:48.864Z,17.70
2018-07-23T03:13:16.347Z,17.80
2018-07-23T03:15:43.814Z,17.90
2018-07-23T03:18:11.376Z,18.00
2018-07-23T03:20:38.844Z,18.10
2018-07-23T03:23:06.292Z,18.00
2018-07-23T03:25:33.868Z,17.90
2018-07-23T03:28:01.328Z,17.90
2018-07-23T03:30:28.803Z,18.00
2018-07-23T03:32:56.248Z,18.20
2018-07-23T03:35:23.824Z,18.10
2018-07-23T03:37:51.279Z,18.00
2018-07-23T03:40:20.280Z,18.20
2018-07-23T03:42:47.731Z,18.20
2018-07-23T03:45:15.189Z,18.20
2018-07-23T03:47:42.663Z,18.10
2018-07-23T03:50:10.223Z,18.10
2018-07-23T03:52:37.696Z,18.10
2018-07-23T03:55:05.151Z,18.10
2018-07-23T03:57:32.708Z,18.00
2018-07-23T04:00:00.167Z,18.00
2018-07-23T04:02:27.622Z,18.10
2018-07-23T04:04:55.075Z,17.90
2018-07-23T04:07:22.542Z,17.80
2018-07-23T04:09:50.008Z,17.70
2018-07-23T04:12:17.485Z,17.70
2018-07-23T04:14:45.008Z,17.70
2018-07-23T04:17:12.532Z,17.60
2018-07-23T04:19:40.084Z,17.70
2018-07-23T04:22:07.638Z,17.70
2018-07-23T04:24:35.207Z,17.60
2018-07-23T04:27:02.669Z,17.70
2018-07-23T04:29:30.132Z,17.70
2018-07-23T04:31:57.688Z,17.70
2018-07-23T04:34:25.147Z,17.80
2018-07-23T04:36:52.676Z,17.80
2018-07-23T04:39:20.186Z,17.90
2018-07-23T04:41:47.627Z,18.10
2018-07-23T04:44:15.084Z,18.20
2018-07-23T04:46:42.544Z,18.30
2018-07-23T04:49:10.028Z,18.20
2018-07-23T04:51:38.743Z,18.10
2018-07-23T04:54:06.971Z,18.30
2018-07-23T04:56:34.484Z,18.30
2018-07-23T04:59:01.912Z,18.40
2018-07-23T05:01:29.378Z,18.50
2018-07-23T05:03:56.841Z,18.50
2018-07-23T05:06:24.299Z,18.60
2018-07-23T05:08:51.762Z,18.70
2018-07-23T05:11:19.217Z,18.60
2018-07-23T05:13:46.701Z,18.80
2018-07-23T05:16:14.267Z,18.90
2018-07-23T05:18:41.713Z,18.90
2018-07-23T05:21:09.186Z,19.00
2018-07-23T05:23:36.755Z,19.30
2018-07-23T05:26:04.241Z,19.20
2018-07-23T05:28:31.667Z,19.20
2018-07-23T05:30:59.122Z,19.30
2018-07-23T05:33:26.585Z,19.40
2018-07-23T05:35:54.040Z,19.40
2018-07-23T05:38:21.558Z,19.30
2018-07-23T05:40:48.980Z,19.20
2018-07-23T05:43:16.505Z,19.30
2018-07-23T05:45:43.966Z,19.40
2018-07-23T05:48:11.473Z,19.40
2018-07-23T05:50:38.967Z,19.60
2018-07-23T05:53:07.183Z,19.60
2018-07-23T05:55:34.683Z,19.60
2018-07-23T05:58:02.159Z,19.70
2018-07-23T06:00:30.405Z,19.80
2018-07-23T06:02:57.850Z,19.80
2018-07-23T06:05:25.471Z,20.00
2018-07-23T06:07:53.686Z,20.10
2018-07-23T06:10:21.142Z,20.10
2018-07-23T06:12:48.601Z,20.30
2018-07-23T06:15:16.070Z,20.40
2018-07-23T06:17:43.543Z,20.60
2018-07-23T06:20:10.980Z,20.60
2018-07-23T06:22:38.524Z,20.70
2018-07-23T06:25:06.767Z,20.80
2018-07-23T06:27:34.352Z,20.70
2018-07-23T06:30:02.584Z,21.10
2018-07-23T06:32:30.065Z,21.10
2018-07-23T06:34:57.512Z,21.20
2018-07-23T06:37:24.987Z,21.30
2018-07-23T06:39:52.456Z,21.30
2018-07-23T06:42:19.912Z,21.40
2018-07-23T06:44:47.378Z,21.50
2018-07-23T06:47:16.753Z,21.50
2018-07-23T06:49:45.092Z,21.60
2018-07-23T06:52:12.550Z,21.60
2018-07-23T06:54:40.117Z,21.60
2018-07-23T06:57:07.671Z,21.70
2018-07-23T06:59:35.264Z,21.70
2018-07-23T07:02:03.489Z,21.90
2018-07-23T07:04:30.973Z,21.80
2018-07-23T07:06:58.458Z,22.00
2018-07-23T07:09:27.428Z,22.20
2018-07-23T07:11:54.884Z,22.20
2018-07-23T07:14:22.362Z,22.40
2018-07-23T07:16:49.832Z,22.40
2018-07-23T07:19:17.283Z,22.50
2018-07-23T07:21:44.763Z,22.50
2018-07-23T07:24:13.032Z,22.70
2018-07-23T07:26:40.490Z,22.70
2018-07-23T07:29:07.943Z,22.70
2018-07-23T07:31:36.167Z,22.80
2018-07-23T07:34:04.389Z,22.90
2018-07-23T07:36:31.914Z,22.90
2018-07-23T07:38:59.465Z,23.00
2018-07-23T07:41:28.436Z,23.10
2018-07-23T07:43:55.884Z,23.10
2018-07-23T07:46:23.398Z,23.20
2018-07-23T07:48:50.825Z,23.20
2018-07-23T07:51:18.279Z,23.30
2018-07-23T07:53:45.763Z,23.30
2018-07-23T07:56:14.023Z,23.30
2018-07-23T07:58:41.494Z,23.20
2018-07-23T08:01:09.080Z,23.40
2018-07-23T08:03:38.034Z,23.50
2018-07-23T08:06:06.906Z,23.50
2018-07-23T08:08:34.364Z,23.60
2018-07-23T08:11:01.816Z,23.70
2018-07-23T08:13:29.275Z,23.80
2018-07-23T08:15:57.529Z,24.00
2018-07-23T08:18:24.959Z,24.00
2018-07-23T08:20:52.410Z,24.10
2018-07-23T08:23:19.888Z,24.10
2018-07-23T08:25:47.336Z,24.10
2018-07-23T08:28:14.826Z,24.10
2018-07-23T08:30:42.293Z,24.20
2018-07-23T08:33:09.761Z,24.20
2018-07-23T08:35:37.220Z,24.30
2018-07-23T08:38:04.680Z,24.40
2018-07-23T08:40:33.635Z,24.40
2018-07-23T08:43:01.168Z,24.40
2018-07-23T08:45:28.569Z,24.50
2018-07-23T08:47:56.024Z,24.70
2018-07-23T08:50:23.498Z,24.70
2018-07-23T08:52:50.977Z,24.60
2018-07-23T08:55:18.551Z,24.80
2018-07-23T08:57:45.996Z,25.10
2018-07-23T09:00:13.571Z,25.10
2018-07-23T09:02:41.042Z,25.20
2018-07-23T09:05:09.271Z,25.20
2018-07-23T09:07:36.757Z,25.20
2018-07-23T09:10:04.207Z,25.20
2018-07-23T09:12:31.691Z,25.20
2018-07-23T09:14:59.143Z,25.40
2018-07-23T09:17:26.612Z,25.30
2018-07-23T09:19:54.064Z,25.30
2018-07-23T09:22:21.539Z,25.30
2018-07-23T09:24:49.376Z,25.30
2018-07-23T09:27:16.831Z,25.40
2018-07-23T09:29:44.297Z,25.50
2018-07-23T09:32:12.953Z,25.90
2018-07-23T09:34:40.554Z,25.90
2018-07-23T09:37:08.028Z,26.00
2018-07-23T09:39:35.519Z,26.00
2018-07-23T09:42:03.092Z,25.90
2018-07-23T09:44:31.683Z,26.10
2018-07-23T09:46:59.147Z,26.10
2018-07-23T09:49:27.380Z,26.10
2018-07-23T09:51:54.839Z,26.10
2018-07-23T09:54:22.287Z,26.20
2018-07-23T09:59:18.543Z,26.30
2018-07-23T10:01:47.164Z,26.30
2018-07-23T10:04:14.642Z,26.30
2018-07-23T10:06:42.121Z,26.40
2018-07-23T10:09:10.399Z,26.40
2018-07-23T10:11:37.947Z,26.40
2018-07-23T10:14:05.408Z,26.50
2018-07-23T10:16:32.888Z,26.50
2018-07-23T10:19:00.435Z,26.60
2018-07-23T10:21:27.885Z,26.50
2018-07-23T10:23:55.347Z,26.30
2018-07-23T10:26:22.832Z,26.40
2018-07-23T10:28:50.302Z,26.50
2018-07-23T10:31:18.955Z,26.80
2018-07-23T10:33:46.459Z,26.70
2018-07-23T10:36:14.697Z,26.80
2018-07-23T10:38:42.161Z,26.80
2018-07-23T10:41:09.911Z,26.90
2018-07-23T10:43:37.363Z,26.60
2018-07-23T10:46:04.877Z,26.70
2018-07-23T10:48:32.342Z,26.80
2018-07-23T10:50:59.966Z,27.10
2018-07-23T10:53:28.963Z,27.10
2018-07-23T10:55:56.452Z,27.10
2018-07-23T10:58:23.949Z,27.10
2018-07-23T11:00:52.196Z,27.10
2018-07-23T11:03:19.658Z,27.10
2018-07-23T11:05:47.546Z,27.10
2018-07-23T11:08:15.065Z,27.20
2018-07-23T11:10:43.320Z,27.20
2018-07-23T11:13:11.548Z,27.30
2018-07-23T11:15:39.018Z,27.20
2018-07-23T11:18:06.591Z,27.30
2018-07-23T11:20:35.122Z,27.50
2018-07-23T11:23:03.391Z,27.50
2018-07-23T11:25:39.744Z,27.60
2018-07-23T11:27:59.925Z,27.70
2018-07-23T11:30:27.575Z,27.60
2018-07-23T11:32:55.036Z,27.50
2018-07-23T11:35:22.501Z,27.50
2018-07-23T11:37:49.959Z,27.60
2018-07-23T11:40:17.495Z,27.60
2018-07-23T11:42:45.009Z,27.50
2018-07-23T11:45:12.435Z,27.60
2018-07-23T11:47:39.883Z,27.60
2018-07-23T11:50:07.351Z,27.70
2018-07-23T11:52:34.807Z,27.70
2018-07-23T11:55:02.319Z,27.80
2018-07-23T11:57:30.550Z,27.70
2018-07-23T11:59:58.009Z,27.70
2018-07-23T12:02:25.459Z,27.90
2018-07-23T12:04:52.986Z,28.00
2018-07-23T12:07:20.559Z,28.00
2018-07-23T12:09:48.005Z,28.00
2018-07-23T12:12:15.483Z,28.10
2018-07-23T12:14:43.030Z,28.10
2018-07-23T12:17:10.701Z,28.00
2018-07-23T12:19:38.165Z,28.00
2018-07-23T12:22:06.408Z,28.10
2018-07-23T12:24:33.868Z,28.10
2018-07-23T12:27:01.333Z,28.10
2018-07-23T12:29:28.795Z,28.20
2018-07-23T12:31:56.262Z,28.20
2018-07-23T12:34:24.727Z,28.30
2018-07-23T12:36:52.240Z,28.30
2018-07-23T12:39:20.660Z,28.40
2018-07-23T12:41:48.121Z,28.50
2018-07-23T12:44:17.160Z,28.40
2018-07-23T12:46:44.649Z,28.40
2018-07-23T12:49:12.100Z,28.40
2018-07-23T12:51:39.566Z,28.30
2018-07-23T12:54:07.091Z,28.20
2018-07-23T12:56:34.537Z,28.20
2018-07-23T12:59:02.001Z,28.40
2018-07-23T13:01:30.367Z,28.70
2018-07-23T13:03:58.635Z,28.80
2018-07-23T13:06:26.903Z,28.90
2018-07-23T13:08:55.879Z,28.90
2018-07-23T13:11:23.348Z,28.90
2018-07-23T13:13:50.909Z,28.80
2018-07-23T13:16:18.389Z,28.90
2018-07-23T13:18:45.874Z,28.80
2018-07-23T13:21:13.415Z,28.30
2018-07-23T13:23:40.884Z,28.20
2018-07-23T13:26:09.122Z,28.20
2018-07-23T13:28:36.615Z,28.30
2018-07-23T13:31:04.080Z,28.50
2018-07-23T13:33:31.542Z,28.90
2018-07-23T13:35:59.011Z,29.00
2018-07-23T13:38:27.245Z,29.00
2018-07-23T13:40:54.692Z,29.00
2018-07-23T13:43:22.168Z,29.00
2018-07-23T13:45:49.620Z,28.90
2018-07-23T13:48:17.084Z,28.70
2018-07-23T13:50:44.548Z,28.70
2018-07-23T13:53:11.994Z,28.70
2018-07-23T13:55:40.238Z,29.20
2018-07-23T13:58:07.860Z,29.20
2018-07-23T14:00:35.310Z,29.40
2018-07-23T14:03:02.818Z,29.50
2018-07-23T14:05:30.284Z,29.60
2018-07-23T14:07:57.767Z,29.70
2018-07-23T14:10:25.227Z,29.70
2018-07-23T14:12:52.884Z,29.40
2018-07-23T14:15:20.359Z,29.40
2018-07-23T14:17:47.814Z,29.50
2018-07-23T14:20:15.263Z,29.40
2018-07-23T14:22:42.724Z,29.60
2018-07-23T14:25:10.283Z,29.50
2018-07-23T14:27:37.852Z,29.50
2018-07-23T14:30:05.333Z,29.70
2018-07-23T14:32:32.807Z,29.60
2018-07-23T14:35:04.383Z,29.90
2018-07-23T14:37:32.629Z,29.70
2018-07-23T14:40:00.099Z,29.70
2018-07-23T14:42:27.670Z,29.80
2018-07-23T14:44:55.124Z,29.70
2018-07-23T14:47:22.590Z,29.90
2018-07-23T14:49:50.110Z,30.00
2018-07-23T14:52:17.612Z,30.20
2018-07-23T14:54:45.079Z,29.90
2018-07-23T14:57:12.624Z,30.00
2018-07-23T14:59:40.086Z,29.90
2018-07-23T15:02:07.580Z,29.90
2018-07-23T15:04:35.114Z,30.00
2018-07-23T15:07:02.672Z,30.00
2018-07-23T15:09:30.261Z,30.10
2018-07-23T15:11:57.713Z,30.10
2018-07-23T15:14:25.940Z,29.90
2018-07-23T15:16:53.403Z,29.90
2018-07-23T15:19:20.860Z,30.10
2018-07-23T15:21:48.374Z,29.90
2018-07-23T15:24:15.932Z,30.10
2018-07-23T15:26:43.384Z,30.30
2018-07-23T15:29:10.965Z,30.40
2018-07-23T15:31:38.426Z,30.50
2018-07-23T15:34:05.895Z,30.40
2018-07-23T15:36:33.460Z,30.20
2018-07-23T15:39:00.939Z,30.20
2018-07-23T15:41:28.387Z,30.10
2018-07-23T15:43:55.935Z,29.90
2018-07-23T15:46:23.326Z,30.30
2018-07-23T15:48:51.574Z,30.40
2018-07-23T15:51:19.055Z,30.40
2018-07-23T15:53:48.309Z,30.10
2018-07-23T15:56:15.748Z,30.30
2018-07-23T15:58:44.085Z,30.60
2018-07-23T16:01:11.543Z,30.70
2018-07-23T16:03:38.990Z,30.20
2018-07-23T16:06:06.447Z,30.10
2018-07-23T16:08:33.931Z,29.90
2018-07-23T16:11:01.400Z,29.70
2018-07-23T16:13:28.868Z,29.90
2018-07-23T16:15:56.322Z,29.90
2018-07-23T16:18:23.766Z,29.90
2018-07-23T16:20:51.223Z,29.70
2018-07-23T16:23:18.703Z,29.20
2018-07-23T16:25:46.142Z,29.00
2018-07-23T16:28:13.634Z,29.80
2018-07-23T16:30:41.654Z,31.50
2018-07-23T16:33:09.114Z,32.00
2018-07-23T16:35:36.563Z,32.00
2018-07-23T16:38:04.826Z,32.20
2018-07-23T16:40:32.289Z,32.20
2018-07-23T16:42:59.750Z,32.20
2018-07-23T16:45:27.201Z,32.40
2018-07-23T16:47:54.759Z,32.40
2018-07-23T16:50:22.235Z,32.30
2018-07-23T16:52:49.794Z,32.10
2018-07-23T16:55:17.354Z,32.00
2018-07-23T16:57:45.559Z,32.10
2018-07-23T17:00:13.807Z,32.00
2018-07-23T17:02:41.263Z,32.00
2018-07-23T17:05:08.843Z,32.10
2018-07-23T17:07:36.402Z,32.00
2018-07-23T17:10:03.962Z,31.90
2018-07-23T17:12:31.422Z,31.90
2018-07-23T17:14:58.895Z,32.00
2018-07-23T17:17:26.339Z,31.90
2018-07-23T17:19:53.787Z,31.80
2018-07-23T17:22:21.294Z,31.80
2018-07-23T17:24:48.741Z,31.70
2018-07-23T17:27:16.220Z,31.70
2018-07-23T17:29:43.679Z,31.60
2018-07-23T17:32:11.133Z,31.70
2018-07-23T17:34:38.592Z,31.50
2018-07-23T17:37:06.050Z,31.70
2018-07-23T17:39:35.449Z,31.70
2018-07-23T17:42:02.903Z,31.70
2018-07-23T17:44:30.378Z,31.70
2018-07-23T17:46:57.950Z,31.50
2018-07-23T17:49:26.295Z,31.50
2018-07-23T17:51:53.748Z,31.40
2018-07-23T17:54:21.199Z,31.40
2018-07-23T17:56:48.685Z,31.50
2018-07-23T17:59:16.154Z,31.50
2018-07-23T18:01:43.669Z,31.50
2018-07-23T18:04:11.104Z,31.50
2018-07-23T18:06:38.574Z,31.40
2018-07-23T18:09:06.134Z,31.40
2018-07-23T18:11:33.590Z,31.30
2018-07-23T18:14:01.038Z,31.20
2018-07-23T18:16:28.506Z,31.20
2018-07-23T18:18:55.976Z,31.30
2018-07-23T18:21:23.427Z,31.30
2018-07-23T18:23:50.886Z,31.20
2018-07-23T18:26:19.554Z,31.10
2018-07-23T18:28:47.048Z,31.10
2018-07-23T18:31:14.568Z,31.00
2018-07-23T18:33:42.745Z,31.10
2018-07-23T18:36:10.196Z,31.20
2018-07-23T18:38:38.498Z,31.00
2018-07-23T18:41:05.891Z,30.90
2018-07-23T18:43:33.357Z,31.00
2018-07-23T18:46:00.826Z,31.00
2018-07-23T18:48:28.290Z,31.00
2018-07-23T18:50:55.748Z,30.90
2018-07-23T18:53:23.206Z,30.80
2018-07-23T18:55:50.776Z,30.90
2018-07-23T18:58:18.346Z,30.80
2018-07-23T19:00:45.899Z,30.70
2018-07-23T19:03:13.351Z,30.60
2018-07-23T19:05:40.893Z,30.70
2018-07-23T19:08:08.390Z,30.60
2018-07-23T19:10:35.955Z,30.50
2018-07-23T19:13:03.399Z,30.50
2018-07-23T19:15:30.879Z,30.30
2018-07-23T19:17:58.328Z,30.30
2018-07-23T19:20:25.915Z,30.30
2018-07-23T19:22:53.369Z,30.30
2018-07-23T19:25:20.830Z,30.30
2018-07-23T19:27:48.282Z,30.30
2018-07-23T19:30:15.758Z,30.30
2018-07-23T19:32:43.230Z,30.30
2018-07-23T19:35:11.470Z,30.10
2018-07-23T19:37:38.967Z,30.10
2018-07-23T19:40:06.426Z,30.10
2018-07-23T19:42:33.868Z,30.00
2018-07-23T19:45:01.422Z,30.00
2018-07-23T19:47:28.911Z,29.90
2018-07-23T19:49:56.366Z,29.90
2018-07-23T19:52:23.819Z,29.80
2018-07-23T19:54:51.302Z,29.80
2018-07-23T19:57:18.856Z,29.70
2018-07-23T19:59:46.306Z,29.70
2018-07-23T20:02:13.788Z,29.60
2018-07-23T20:04:41.350Z,29.60
2018-07-23T20:07:08.884Z,29.60
2018-07-23T20:09:36.326Z,29.60
2018-07-23T20:12:03.796Z,29.50
2018-07-23T20:14:31.250Z,29.50
2018-07-23T20:16:58.699Z,29.50
2018-07-23T20:19:26.914Z,29.40
2018-07-23T20:21:55.195Z,29.40
2018-07-23T20:24:22.654Z,29.30
2018-07-23T20:26:50.141Z,29.20
2018-07-23T20:29:17.597Z,29.20
2018-07-23T20:31:45.048Z,29.20
2018-07-23T20:34:12.519Z,29.20
2018-07-23T20:36:39.964Z,29.20
2018-07-23T20:39:07.490Z,29.00
2018-07-23T20:41:34.900Z,29.10
2018-07-23T20:44:02.356Z,29.00
2018-07-23T20:46:29.818Z,29.00
2018-07-23T20:48:57.335Z,29.00
2018-07-23T20:51:24.735Z,28.90
2018-07-23T20:53:52.185Z,28.90
2018-07-23T20:56:19.639Z,28.80
2018-07-23T20:58:47.510Z,28.80
2018-07-23T21:01:14.967Z,28.80
2018-07-23T21:03:43.317Z,28.70
2018-07-23T21:06:10.898Z,28.70
2018-07-23T21:08:38.345Z,28.70
2018-07-23T21:11:05.791Z,28.70
2018-07-23T21:13:33.237Z,28.70
2018-07-23T21:16:00.703Z,28.60
2018-07-23T21:18:28.169Z,28.60
2018-07-23T21:20:55.639Z,28.60
2018-07-23T21:23:23.212Z,28.50
2018-07-23T21:25:50.673Z,28.50
2018-07-23T21:28:18.240Z,28.40
2018-07-23T21:30:45.684Z,27.00
2018-07-23T21:33:14.270Z,25.60
2018-07-23T21:35:42.970Z,25.40
2018-07-23T21:38:10.426Z,25.40
2018-07-23T21:40:37.903Z,25.30
2018-07-23T21:43:05.473Z,25.20
2018-07-23T21:45:32.931Z,24.70
2018-07-23T21:48:00.395Z,25.00
2018-07-23T21:50:28.622Z,24.60
2018-07-23T21:52:56.093Z,24.50
2018-07-23T21:55:23.543Z,24.60
2018-07-23T21:57:51.755Z,24.50
2018-07-23T22:00:19.219Z,24.50
2018-07-23T22:02:47.432Z,24.00
2018-07-23T22:05:14.890Z,24.00
2018-07-23T22:07:42.344Z,24.10
2018-07-23T22:10:11.334Z,24.10
2018-07-23T22:12:38.798Z,24.10
2018-07-23T22:15:06.286Z,24.20
2018-07-23T22:17:34.195Z,24.20
2018-07-23T22:20:01.651Z,24.10
2018-07-23T22:22:29.098Z,24.00
2018-07-23T22:24:57.439Z,24.00
2018-07-23T22:27:24.891Z,23.90
2018-07-23T22:29:52.339Z,23.80
2018-07-23T22:32:19.827Z,23.80
2018-07-23T22:34:47.277Z,23.90
2018-07-23T22:37:14.732Z,23.90
2018-07-23T22:39:42.211Z,23.90
2018-07-23T22:42:09.767Z,23.80
2018-07-23T22:44:37.119Z,23.80
2018-07-23T22:47:04.595Z,24.00
2018-07-23T22:49:32.044Z,23.90
2018-07-23T22:51:59.530Z,23.60
2018-07-23T22:54:27.755Z,23.70
2018-07-23T22:56:55.219Z,23.70
2018-07-23T22:59:22.668Z,23.60
2018-07-23T23:01:50.901Z,23.80
2018-07-23T23:04:18.469Z,23.80
2018-07-23T23:06:45.945Z,23.40
2018-07-23T23:09:13.502Z,23.30
2018-07-23T23:11:40.969Z,23.10
2018-07-23T23:14:08.418Z,23.10
2018-07-23T23:16:35.900Z,23.10
2018-07-23T23:19:03.500Z,23.20
2018-07-23T23:21:31.678Z,23.10
2018-07-23T23:23:59.139Z,23.10
2018-07-23T23:26:26.650Z,23.10
2018-07-23T23:28:54.119Z,23.00
2018-07-23T23:31:21.568Z,23.10
2018-07-23T23:33:49.055Z,23.10
2018-07-23T23:36:17.793Z,23.00
2018-07-23T23:38:45.232Z,23.10
2018-07-23T23:41:13.452Z,23.00
2018-07-23T23:43:40.895Z,23.00
2018-07-23T23:46:08.347Z,22.90
2018-07-23T23:48:35.857Z,22.90
2018-07-23T23:51:03.412Z,22.80
2018-07-23T23:53:30.894Z,22.80
2018-07-23T23:55:58.355Z,23.00
2018-07-23T23:58:25.817Z,22.90
